This is the latest recevied weather packets stored in our database for station/object WX4SGA. If no packets are shown the sender has not sent any weather packets the latest 10 day(s).
| Time | Temp. | Humidity | Pressure | Rain* | Wind** | Luminosity | Snow |
|---|---|---|---|---|---|---|---|
| 1787846145 | 31.11° C | 74% | 1016.6 hPa | 0 mm | - | 711 W/m² | - |
| 1787845845 | 31.11° C | 75% | 1016.9 hPa | 0 mm | - | 225 W/m² | - |
| 1787845541 | 32.22° C | 73% | 1016.9 hPa | 0 mm | - | 767 W/m² | - |
| 1787845236 | 32.22° C | 72% | 1016.9 hPa | 0 mm | - | 515 W/m² | - |
| 1787844932 | 32.22° C | 73% | 1016.9 hPa | 0 mm | - | 704 W/m² | - |
| 1787844626 | 31.67° C | 76% | 1016.9 hPa | 0 mm | - | 695 W/m² | - |
| 1787844321 | 31.11° C | 75% | 1016.9 hPa | 0 mm | - | 671 W/m² | - |
| 1787844020 | 30.56° C | 78% | 1016.9 hPa | 0 mm | - | 676 W/m² | - |
| 1787843720 | 30.56° C | 76% | 1016.9 hPa | 0 mm | - | 649 W/m² | - |
| 1787843416 | 30.56° C | 80% | 1016.9 hPa | 0 mm | - | 605 W/m² | - |
| 1787843113 | 30° C | 79% | 1016.9 hPa | 0 mm | - | 597 W/m² | - |
| 1787842812 | 30° C | 82% | 1016.9 hPa | 0 mm | - | 555 W/m² | - |
| 1787842507 | 30° C | 82% | 1016.9 hPa | 0 mm | - | 558 W/m² | - |
| 1787842206 | 30° C | 83% | 1016.9 hPa | 0 mm | - | 443 W/m² | - |
| 1787841901 | 30.56° C | 80% | 1016.6 hPa | 0 mm | - | 560 W/m² | - |
| 1787841597 | 30° C | 81% | 1016.9 hPa | 0 mm | - | 548 W/m² | - |
| 1787841296 | 30° C | 81% | 1016.9 hPa | 0 mm | - | 526 W/m² | - |
| 1787840990 | 29.44° C | 83% | 1016.6 hPa | 0 mm | - | 527 W/m² | - |
| 1787840687 | 29.44° C | 82% | 1016.6 hPa | 0 mm | - | 496 W/m² | - |
| 1787840381 | 28.89° C | 84% | 1016.6 hPa | 0 mm | - | 502 W/m² | - |
| 1787840077 | 28.89° C | 82% | 1016.6 hPa | 0 mm | - | 496 W/m² | - |
| 1787839771 | 28.33° C | 85% | 1016.6 hPa | 0 mm | - | 482 W/m² | - |
| 1787839471 | 28.33° C | 85% | 1016.6 hPa | 0 mm | - | 492 W/m² | - |
| 1787839165 | 28.33° C | 85% | 1016.6 hPa | 0 mm | - | 472 W/m² | - |
| 1787838865 | 28.33° C | 87% | 1016.3 hPa | 0 mm | - | 504 W/m² | - |
* Rain latest hour (hover to see other rain measurements)
** Current wind speed in m/s (hover to see current wind gust speed)